Auckland (NZAA)

Aerodrome — Elev 23
New Zealand
S037.00.20.413 E174.47.25.105
Loading chart...

Note: Unless otherwise advised, Runway 05L/23R is to be used as a taxiway and not for flight operations.

Current Weather

NZAA 100230Z AUTO 23014KT 9999 OVC019/// 19/16 Q1012 NOSIG

Published 26 minutes ago

Airport Activity

Loading chart...
Loading chart...

Standard ATC Positions

CallsignRadio Name / Freq / Voice Room / TypeFrequencyVoice RoomType
NZCH-R_CTR Auckland Control
126.000
nzch-r_ctr
126.000nzch-r_ctr
NZAA_APP Auckland Approach
124.300
nzaa_app
124.300nzaa_app
NZAA_DEP Auckland Approach
118.000
nzaa_dep
118.000nzaa_dep
NZAA_TWR Auckland Tower
118.700
nzaa_twr
118.700nzaa_twr
NZAA_GND Auckland Ground
121.900
nzaa_gnd
121.900nzaa_gnd
NZAA_DEL Auckland Delivery
128.200
nzaa_del
128.200nzaa_del
NZAA_ATIS Auckland ATIS
127.800
nzaa_atis
127.800nzaa_atis
UNICOM NZZC UNICOM
122.800
unicom_nzzc
122.800unicom_nzzc

Event ATC Positions

This airport has control positions that are designated for use only during major events.
These positions should not be staffed unless specifically activated by the VATNZ Airspace Director as part of an official VATNZ event.

CallsignRadio Name / Freq / Voice Room / TypeFrequencyVoice RoomType
NZAA_CTR Auckland Control
123.900
nzaa_ctr
123.900nzaa_ctr
NZAA-F_APP Auckland Approach
129.600
nzaa-f_app
129.600nzaa-f_app

Charts